sensor_id;sensor_type;location;lat;lon;timestamp;temperature;humidity
2465;DHT22;1244;54.326;10.074;2022-09-09T00:04:35;14.00;99.90
2465;DHT22;1244;54.326;10.074;2022-09-09T00:07:21;14.00;99.90
2465;DHT22;1244;54.326;10.074;2022-09-09T00:10:37;14.00;99.90
2465;DHT22;1244;54.326;10.074;2022-09-09T00:13:15;14.10;99.90
2465;DHT22;1244;54.326;10.074;2022-09-09T00:21:39;14.00;99.90
2465;DHT22;1244;54.326;10.074;2022-09-09T00:24:23;14.00;99.90
2465;DHT22;1244;54.326;10.074;2022-09-09T00:26:55;14.00;99.90
2465;DHT22;1244;54.326;10.074;2022-09-09T00:29:33;14.10;99.90
2465;DHT22;1244;54.326;10.074;2022-09-09T00:32:13;14.00;99.90
2465;DHT22;1244;54.326;10.074;2022-09-09T00:34:51;14.00;99.90
2465;DHT22;1244;54.326;10.074;2022-09-09T00:37:19;14.10;99.90
2465;DHT22;1244;54.326;10.074;2022-09-09T00:39:47;14.10;99.90
2465;DHT22;1244;54.326;10.074;2022-09-09T00:42:18;14.00;99.90
2465;DHT22;1244;54.326;10.074;2022-09-09T00:47:52;14.00;99.90
2465;DHT22;1244;54.326;10.074;2022-09-09T00:50:39;14.00;99.90
2465;DHT22;1244;54.326;10.074;2022-09-09T00:58:24;14.00;99.90
2465;DHT22;1244;54.326;10.074;2022-09-09T01:00:54;14.10;99.90
2465;DHT22;1244;54.326;10.074;2022-09-09T01:03:35;14.10;99.90
2465;DHT22;1244;54.326;10.074;2022-09-09T01:06:43;14.10;99.90
2465;DHT22;1244;54.326;10.074;2022-09-09T01:11:59;14.10;99.90
2465;DHT22;1244;54.326;10.074;2022-09-09T01:17:20;14.10;99.90
2465;DHT22;1244;54.326;10.074;2022-09-09T01:20:08;14.00;99.90
2465;DHT22;1244;54.326;10.074;2022-09-09T01:23:03;14.10;99.90
2465;DHT22;1244;54.326;10.074;2022-09-09T01:28:16;14.10;99.90
2465;DHT22;1244;54.326;10.074;2022-09-09T01:30:44;14.10;99.90
2465;DHT22;1244;54.326;10.074;2022-09-09T01:33:15;14.10;99.90
2465;DHT22;1244;54.326;10.074;2022-09-09T01:36:45;14.10;99.90
2465;DHT22;1244;54.326;10.074;2022-09-09T01:38:51;14.10;99.90
2465;DHT22;1244;54.326;10.074;2022-09-09T01:41:17;14.10;99.90
2465;DHT22;1244;54.326;10.074;2022-09-09T01:43:43;14.10;99.90
2465;DHT22;1244;54.326;10.074;2022-09-09T01:46:09;14.10;99.90
2465;DHT22;1244;54.326;10.074;2022-09-09T01:48:36;14.10;99.90
2465;DHT22;1244;54.326;10.074;2022-09-09T01:51:02;14.10;99.90
2465;DHT22;1244;54.326;10.074;2022-09-09T01:53:27;14.10;99.90
2465;DHT22;1244;54.326;10.074;2022-09-09T01:56:02;14.10;99.90
2465;DHT22;1244;54.326;10.074;2022-09-09T01:58:43;14.10;99.90
2465;DHT22;1244;54.326;10.074;2022-09-09T02:06:55;14.10;99.90
2465;DHT22;1244;54.326;10.074;2022-09-09T02:09:24;14.10;99.90
2465;DHT22;1244;54.326;10.074;2022-09-09T02:11:59;14.10;99.90
2465;DHT22;1244;54.326;10.074;2022-09-09T02:14:34;14.10;99.90
2465;DHT22;1244;54.326;10.074;2022-09-09T02:17:09;14.10;99.90
2465;DHT22;1244;54.326;10.074;2022-09-09T02:19:39;14.10;99.90
2465;DHT22;1244;54.326;10.074;2022-09-09T02:22:07;14.10;99.90
2465;DHT22;1244;54.326;10.074;2022-09-09T02:24:37;14.10;99.90
2465;DHT22;1244;54.326;10.074;2022-09-09T02:27:05;14.10;99.90
2465;DHT22;1244;54.326;10.074;2022-09-09T02:29:36;14.10;99.90
2465;DHT22;1244;54.326;10.074;2022-09-09T02:32:06;14.10;99.90
2465;DHT22;1244;54.326;10.074;2022-09-09T02:34:37;14.10;99.90
2465;DHT22;1244;54.326;10.074;2022-09-09T02:37:07;14.10;99.90
2465;DHT22;1244;54.326;10.074;2022-09-09T02:39:33;14.10;99.90
2465;DHT22;1244;54.326;10.074;2022-09-09T02:41:58;14.10;99.90
2465;DHT22;1244;54.326;10.074;2022-09-09T02:44:25;14.10;99.90
2465;DHT22;1244;54.326;10.074;2022-09-09T02:47:31;14.10;99.90
2465;DHT22;1244;54.326;10.074;2022-09-09T02:50:06;14.10;99.90
2465;DHT22;1244;54.326;10.074;2022-09-09T02:55:43;14.10;99.90
2465;DHT22;1244;54.326;10.074;2022-09-09T02:58:13;14.00;99.90
2465;DHT22;1244;54.326;10.074;2022-09-09T03:00:44;14.10;99.90
2465;DHT22;1244;54.326;10.074;2022-09-09T03:03:10;14.00;99.90
2465;DHT22;1244;54.326;10.074;2022-09-09T03:05:36;14.00;99.90
2465;DHT22;1244;54.326;10.074;2022-09-09T03:08:03;14.00;99.90
2465;DHT22;1244;54.326;10.074;2022-09-09T03:10:29;14.00;99.90
2465;DHT22;1244;54.326;10.074;2022-09-09T03:12:54;14.00;99.90
2465;DHT22;1244;54.326;10.074;2022-09-09T03:15:20;14.00;99.90
2465;DHT22;1244;54.326;10.074;2022-09-09T03:17:46;14.00;99.90
2465;DHT22;1244;54.326;10.074;2022-09-09T03:20:12;13.90;99.90
2465;DHT22;1244;54.326;10.074;2022-09-09T03:22:37;14.00;99.90
2465;DHT22;1244;54.326;10.074;2022-09-09T03:25:03;14.00;99.90
2465;DHT22;1244;54.326;10.074;2022-09-09T03:27:29;14.00;99.90
2465;DHT22;1244;54.326;10.074;2022-09-09T03:29:55;14.00;99.90
2465;DHT22;1244;54.326;10.074;2022-09-09T03:32:21;14.00;99.90
2465;DHT22;1244;54.326;10.074;2022-09-09T03:34:48;14.00;99.90
2465;DHT22;1244;54.326;10.074;2022-09-09T03:37:15;14.00;99.90
2465;DHT22;1244;54.326;10.074;2022-09-09T03:39:41;14.00;99.90
2465;DHT22;1244;54.326;10.074;2022-09-09T03:42:06;13.90;99.90
2465;DHT22;1244;54.326;10.074;2022-09-09T03:44:32;14.00;99.90
2465;DHT22;1244;54.326;10.074;2022-09-09T03:46:57;14.00;99.90
2465;DHT22;1244;54.326;10.074;2022-09-09T03:49:26;14.00;99.90
2465;DHT22;1244;54.326;10.074;2022-09-09T03:51:54;14.00;99.90
2465;DHT22;1244;54.326;10.074;2022-09-09T03:54:20;13.90;99.90
2465;DHT22;1244;54.326;10.074;2022-09-09T03:56:45;13.90;99.90
2465;DHT22;1244;54.326;10.074;2022-09-09T03:59:11;13.80;99.90
2465;DHT22;1244;54.326;10.074;2022-09-09T04:01:36;13.80;99.90
2465;DHT22;1244;54.326;10.074;2022-09-09T04:04:02;13.80;99.90
2465;DHT22;1244;54.326;10.074;2022-09-09T04:06:28;13.80;99.90
2465;DHT22;1244;54.326;10.074;2022-09-09T04:08:54;13.80;99.90
2465;DHT22;1244;54.326;10.074;2022-09-09T04:11:20;13.80;99.90
2465;DHT22;1244;54.326;10.074;2022-09-09T04:13:48;13.80;99.90
2465;DHT22;1244;54.326;10.074;2022-09-09T04:16:14;13.80;99.90
2465;DHT22;1244;54.326;10.074;2022-09-09T04:18:40;13.80;99.90
2465;DHT22;1244;54.326;10.074;2022-09-09T04:21:06;13.80;99.90
2465;DHT22;1244;54.326;10.074;2022-09-09T04:23:33;13.80;99.90
2465;DHT22;1244;54.326;10.074;2022-09-09T04:26:00;13.80;99.90
2465;DHT22;1244;54.326;10.074;2022-09-09T04:28:29;13.80;99.90
2465;DHT22;1244;54.326;10.074;2022-09-09T04:30:55;13.70;99.90
2465;DHT22;1244;54.326;10.074;2022-09-09T04:33:23;13.70;99.90
2465;DHT22;1244;54.326;10.074;2022-09-09T04:35:51;13.80;99.90
2465;DHT22;1244;54.326;10.074;2022-09-09T04:38:19;13.80;99.90
2465;DHT22;1244;54.326;10.074;2022-09-09T04:40:48;13.80;99.90
2465;DHT22;1244;54.326;10.074;2022-09-09T04:43:14;13.70;99.90
2465;DHT22;1244;54.326;10.074;2022-09-09T04:45:40;13.80;99.90
2465;DHT22;1244;54.326;10.074;2022-09-09T04:48:07;13.80;99.90
2465;DHT22;1244;54.326;10.074;2022-09-09T04:50:33;13.80;99.90
2465;DHT22;1244;54.326;10.074;2022-09-09T04:53:03;13.80;99.90
2465;DHT22;1244;54.326;10.074;2022-09-09T04:55:30;13.80;99.90
2465;DHT22;1244;54.326;10.074;2022-09-09T04:57:56;13.80;99.90
2465;DHT22;1244;54.326;10.074;2022-09-09T05:00:23;13.80;99.90
2465;DHT22;1244;54.326;10.074;2022-09-09T05:02:48;13.80;99.90
2465;DHT22;1244;54.326;10.074;2022-09-09T05:05:14;13.80;99.90
2465;DHT22;1244;54.326;10.074;2022-09-09T05:07:39;13.80;99.90
2465;DHT22;1244;54.326;10.074;2022-09-09T05:10:05;13.80;99.90
2465;DHT22;1244;54.326;10.074;2022-09-09T05:12:31;13.80;99.90
2465;DHT22;1244;54.326;10.074;2022-09-09T05:14:57;13.80;99.90
2465;DHT22;1244;54.326;10.074;2022-09-09T05:17:23;13.80;99.90
2465;DHT22;1244;54.326;10.074;2022-09-09T05:19:48;13.80;99.90
2465;DHT22;1244;54.326;10.074;2022-09-09T05:22:19;13.80;99.90
2465;DHT22;1244;54.326;10.074;2022-09-09T05:24:45;13.80;99.90
2465;DHT22;1244;54.326;10.074;2022-09-09T05:27:11;13.80;99.90
2465;DHT22;1244;54.326;10.074;2022-09-09T05:29:37;13.80;99.90
2465;DHT22;1244;54.326;10.074;2022-09-09T05:32:04;13.90;99.90
2465;DHT22;1244;54.326;10.074;2022-09-09T05:34:29;13.90;99.90
2465;DHT22;1244;54.326;10.074;2022-09-09T05:36:55;13.80;99.90
2465;DHT22;1244;54.326;10.074;2022-09-09T05:39:20;13.80;99.90
2465;DHT22;1244;54.326;10.074;2022-09-09T05:41:46;13.90;99.90
2465;DHT22;1244;54.326;10.074;2022-09-09T05:44:11;13.90;99.90
2465;DHT22;1244;54.326;10.074;2022-09-09T05:46:37;13.90;99.90
2465;DHT22;1244;54.326;10.074;2022-09-09T05:49:03;13.90;99.90
2465;DHT22;1244;54.326;10.074;2022-09-09T05:51:31;13.90;99.90
2465;DHT22;1244;54.326;10.074;2022-09-09T05:53:56;13.90;99.90
2465;DHT22;1244;54.326;10.074;2022-09-09T05:56:27;13.90;99.90
2465;DHT22;1244;54.326;10.074;2022-09-09T05:58:53;13.90;99.90
2465;DHT22;1244;54.326;10.074;2022-09-09T06:01:21;13.90;99.90
2465;DHT22;1244;54.326;10.074;2022-09-09T06:03:49;13.90;99.90
2465;DHT22;1244;54.326;10.074;2022-09-09T06:06:17;13.90;99.90
2465;DHT22;1244;54.326;10.074;2022-09-09T06:08:44;13.90;99.90
2465;DHT22;1244;54.326;10.074;2022-09-09T06:11:22;13.90;99.90
2465;DHT22;1244;54.326;10.074;2022-09-09T06:13:49;14.00;99.90
2465;DHT22;1244;54.326;10.074;2022-09-09T06:16:18;14.00;99.90
2465;DHT22;1244;54.326;10.074;2022-09-09T06:18:44;14.00;99.90
2465;DHT22;1244;54.326;10.074;2022-09-09T06:21:21;14.00;99.90
2465;DHT22;1244;54.326;10.074;2022-09-09T06:23:47;14.10;99.90
2465;DHT22;1244;54.326;10.074;2022-09-09T06:26:16;14.10;99.90
2465;DHT22;1244;54.326;10.074;2022-09-09T06:28:50;14.10;99.90
2465;DHT22;1244;54.326;10.074;2022-09-09T06:31:19;14.20;99.90
2465;DHT22;1244;54.326;10.074;2022-09-09T06:33:52;14.20;99.90
2465;DHT22;1244;54.326;10.074;2022-09-09T06:36:19;14.20;99.90
2465;DHT22;1244;54.326;10.074;2022-09-09T06:38:45;14.20;99.90
2465;DHT22;1244;54.326;10.074;2022-09-09T06:41:13;14.20;99.90
2465;DHT22;1244;54.326;10.074;2022-09-09T06:43:39;14.10;99.90
2465;DHT22;1244;54.326;10.074;2022-09-09T06:46:16;14.10;99.90
2465;DHT22;1244;54.326;10.074;2022-09-09T06:48:43;14.10;99.90
2465;DHT22;1244;54.326;10.074;2022-09-09T06:51:20;14.10;99.90
2465;DHT22;1244;54.326;10.074;2022-09-09T06:53:53;14.20;99.90
2465;DHT22;1244;54.326;10.074;2022-09-09T06:56:27;14.20;99.90
2465;DHT22;1244;54.326;10.074;2022-09-09T06:58:54;14.30;99.90
2465;DHT22;1244;54.326;10.074;2022-09-09T07:01:22;14.30;99.90
2465;DHT22;1244;54.326;10.074;2022-09-09T07:03:53;14.40;99.90
2465;DHT22;1244;54.326;10.074;2022-09-09T07:06:25;14.40;99.90
2465;DHT22;1244;54.326;10.074;2022-09-09T07:08:56;14.40;99.90
2465;DHT22;1244;54.326;10.074;2022-09-09T07:11:25;14.50;99.90
2465;DHT22;1244;54.326;10.074;2022-09-09T07:13:52;14.60;99.90
2465;DHT22;1244;54.326;10.074;2022-09-09T07:16:19;14.70;99.90
2465;DHT22;1244;54.326;10.074;2022-09-09T07:18:46;14.80;99.90
2465;DHT22;1244;54.326;10.074;2022-09-09T07:21:13;14.80;99.90
2465;DHT22;1244;54.326;10.074;2022-09-09T07:23:40;14.90;99.90
2465;DHT22;1244;54.326;10.074;2022-09-09T07:26:09;15.10;99.90
2465;DHT22;1244;54.326;10.074;2022-09-09T07:28:36;15.10;99.90
2465;DHT22;1244;54.326;10.074;2022-09-09T07:31:02;15.10;99.90
2465;DHT22;1244;54.326;10.074;2022-09-09T07:33:29;15.10;99.90
2465;DHT22;1244;54.326;10.074;2022-09-09T07:36:06;15.10;99.90
2465;DHT22;1244;54.326;10.074;2022-09-09T07:38:37;15.10;99.90
2465;DHT22;1244;54.326;10.074;2022-09-09T07:41:04;15.20;99.90
2465;DHT22;1244;54.326;10.074;2022-09-09T07:43:30;15.30;99.90
2465;DHT22;1244;54.326;10.074;2022-09-09T07:45:59;15.40;99.90
2465;DHT22;1244;54.326;10.074;2022-09-09T07:48:27;15.50;99.90
2465;DHT22;1244;54.326;10.074;2022-09-09T07:50:52;15.50;99.90
2465;DHT22;1244;54.326;10.074;2022-09-09T07:53:18;15.40;99.90
2465;DHT22;1244;54.326;10.074;2022-09-09T07:55:45;15.40;99.90
2465;DHT22;1244;54.326;10.074;2022-09-09T07:58:10;15.60;99.90
2465;DHT22;1244;54.326;10.074;2022-09-09T08:00:36;15.80;99.90
2465;DHT22;1244;54.326;10.074;2022-09-09T08:03:01;16.10;99.90
2465;DHT22;1244;54.326;10.074;2022-09-09T08:05:27;16.30;99.90
2465;DHT22;1244;54.326;10.074;2022-09-09T08:07:52;16.30;99.90
2465;DHT22;1244;54.326;10.074;2022-09-09T08:10:18;16.20;99.90
2465;DHT22;1244;54.326;10.074;2022-09-09T08:12:44;16.40;99.90
2465;DHT22;1244;54.326;10.074;2022-09-09T08:15:10;16.50;99.90
2465;DHT22;1244;54.326;10.074;2022-09-09T08:17:36;16.50;99.90
2465;DHT22;1244;54.326;10.074;2022-09-09T08:20:03;16.60;99.90
2465;DHT22;1244;54.326;10.074;2022-09-09T08:22:32;16.70;99.90
2465;DHT22;1244;54.326;10.074;2022-09-09T08:24:59;16.80;99.90
2465;DHT22;1244;54.326;10.074;2022-09-09T08:27:25;16.90;99.90
2465;DHT22;1244;54.326;10.074;2022-09-09T08:29:51;17.00;99.90
2465;DHT22;1244;54.326;10.074;2022-09-09T08:32:16;17.10;99.90
2465;DHT22;1244;54.326;10.074;2022-09-09T08:34:44;17.40;99.90
2465;DHT22;1244;54.326;10.074;2022-09-09T08:37:09;17.70;99.90
2465;DHT22;1244;54.326;10.074;2022-09-09T08:39:35;17.80;99.90
2465;DHT22;1244;54.326;10.074;2022-09-09T08:45:21;18.30;99.90
2465;DHT22;1244;54.326;10.074;2022-09-09T08:48:10;18.30;99.90
2465;DHT22;1244;54.326;10.074;2022-09-09T08:50:40;18.10;99.90
2465;DHT22;1244;54.326;10.074;2022-09-09T08:53:28;17.60;99.90
2465;DHT22;1244;54.326;10.074;2022-09-09T08:55:58;17.30;99.90
2465;DHT22;1244;54.326;10.074;2022-09-09T08:58:29;17.20;99.90
2465;DHT22;1244;54.326;10.074;2022-09-09T09:10:10;17.00;99.90
2465;DHT22;1244;54.326;10.074;2022-09-09T09:12:43;17.00;99.90
2465;DHT22;1244;54.326;10.074;2022-09-09T09:15:22;17.00;99.90
2465;DHT22;1244;54.326;10.074;2022-09-09T09:17:48;16.90;99.90
2465;DHT22;1244;54.326;10.074;2022-09-09T09:20:15;17.00;99.90
2465;DHT22;1244;54.326;10.074;2022-09-09T09:22:51;17.40;99.90
2465;DHT22;1244;54.326;10.074;2022-09-09T09:27:54;18.20;99.90
2465;DHT22;1244;54.326;10.074;2022-09-09T09:30:29;18.10;99.90
2465;DHT22;1244;54.326;10.074;2022-09-09T09:33:21;18.00;99.90
2465;DHT22;1244;54.326;10.074;2022-09-09T09:35:50;17.90;99.90
2465;DHT22;1244;54.326;10.074;2022-09-09T09:38:18;18.10;99.90
2465;DHT22;1244;54.326;10.074;2022-09-09T09:40:50;18.30;99.90
2465;DHT22;1244;54.326;10.074;2022-09-09T09:43:24;18.40;99.90
2465;DHT22;1244;54.326;10.074;2022-09-09T09:45:50;18.40;99.90
2465;DHT22;1244;54.326;10.074;2022-09-09T09:48:16;18.20;99.90
2465;DHT22;1244;54.326;10.074;2022-09-09T09:50:54;18.10;99.90
2465;DHT22;1244;54.326;10.074;2022-09-09T09:53:28;18.30;99.90
2465;DHT22;1244;54.326;10.074;2022-09-09T09:56:02;18.50;99.90
2465;DHT22;1244;54.326;10.074;2022-09-09T10:01:28;19.10;99.90
2465;DHT22;1244;54.326;10.074;2022-09-09T10:03:59;19.20;99.90
2465;DHT22;1244;54.326;10.074;2022-09-09T10:06:36;19.10;99.90
2465;DHT22;1244;54.326;10.074;2022-09-09T10:09:17;19.40;99.90
2465;DHT22;1244;54.326;10.074;2022-09-09T10:11:57;19.40;99.90
2465;DHT22;1244;54.326;10.074;2022-09-09T10:18:18;19.00;99.90
2465;DHT22;1244;54.326;10.074;2022-09-09T10:21:02;19.20;99.90
2465;DHT22;1244;54.326;10.074;2022-09-09T10:23:48;20.90;99.90
2465;DHT22;1244;54.326;10.074;2022-09-09T10:26:35;20.80;99.90
2465;DHT22;1244;54.326;10.074;2022-09-09T10:29:30;21.60;99.90
2465;DHT22;1244;54.326;10.074;2022-09-09T10:35:01;21.40;99.90
2465;DHT22;1244;54.326;10.074;2022-09-09T10:37:52;21.60;99.90
2465;DHT22;1244;54.326;10.074;2022-09-09T10:42:46;22.30;99.90
2465;DHT22;1244;54.326;10.074;2022-09-09T10:50:43;24.10;99.90
2465;DHT22;1244;54.326;10.074;2022-09-09T10:53:30;23.90;99.90
2465;DHT22;1244;54.326;10.074;2022-09-09T10:56:06;23.50;99.90
2465;DHT22;1244;54.326;10.074;2022-09-09T10:58:44;23.00;99.90
2465;DHT22;1244;54.326;10.074;2022-09-09T11:01:25;22.50;99.90
2465;DHT22;1244;54.326;10.074;2022-09-09T11:03:57;22.00;99.90
2465;DHT22;1244;54.326;10.074;2022-09-09T11:06:28;22.00;99.90
2465;DHT22;1244;54.326;10.074;2022-09-09T11:08:56;21.70;99.90
2465;DHT22;1244;54.326;10.074;2022-09-09T11:11:36;22.00;99.90
2465;DHT22;1244;54.326;10.074;2022-09-09T11:16:42;21.90;99.90
2465;DHT22;1244;54.326;10.074;2022-09-09T11:19:34;22.40;99.90
2465;DHT22;1244;54.326;10.074;2022-09-09T11:22:08;23.50;99.90
2465;DHT22;1244;54.326;10.074;2022-09-09T11:24:44;23.70;99.90
2465;DHT22;1244;54.326;10.074;2022-09-09T11:27:20;23.50;99.90
2465;DHT22;1244;54.326;10.074;2022-09-09T11:40:45;26.40;99.90
2465;DHT22;1244;54.326;10.074;2022-09-09T11:43:17;27.00;99.90
2465;DHT22;1244;54.326;10.074;2022-09-09T11:45:52;26.70;99.90
2465;DHT22;1244;54.326;10.074;2022-09-09T11:51:10;27.70;99.90
2465;DHT22;1244;54.326;10.074;2022-09-09T11:53:48;27.10;99.90
2465;DHT22;1244;54.326;10.074;2022-09-09T11:56:28;26.20;99.90
2465;DHT22;1244;54.326;10.074;2022-09-09T11:59:20;24.50;99.90
2465;DHT22;1244;54.326;10.074;2022-09-09T12:01:48;25.00;99.90
2465;DHT22;1244;54.326;10.074;2022-09-09T12:06:52;27.00;99.90
2465;DHT22;1244;54.326;10.074;2022-09-09T12:11:50;27.60;99.90
2465;DHT22;1244;54.326;10.074;2022-09-09T12:19:40;25.30;99.90
2465;DHT22;1244;54.326;10.074;2022-09-09T12:22:22;25.70;99.90
2465;DHT22;1244;54.326;10.074;2022-09-09T12:25:27;26.10;99.90
2465;DHT22;1244;54.326;10.074;2022-09-09T12:28:15;25.20;99.90
2465;DHT22;1244;54.326;10.074;2022-09-09T12:33:16;23.70;99.90
2465;DHT22;1244;54.326;10.074;2022-09-09T12:35:43;23.10;99.90
2465;DHT22;1244;54.326;10.074;2022-09-09T12:38:19;22.90;99.90
2465;DHT22;1244;54.326;10.074;2022-09-09T12:40:55;22.40;99.90
2465;DHT22;1244;54.326;10.074;2022-09-09T12:43:23;22.30;99.90
2465;DHT22;1244;54.326;10.074;2022-09-09T12:45:51;22.40;99.90
2465;DHT22;1244;54.326;10.074;2022-09-09T12:48:35;22.40;99.90
2465;DHT22;1244;54.326;10.074;2022-09-09T12:51:02;24.00;99.90
2465;DHT22;1244;54.326;10.074;2022-09-09T12:53:34;25.50;99.90
2465;DHT22;1244;54.326;10.074;2022-09-09T12:56:04;27.10;99.90
2465;DHT22;1244;54.326;10.074;2022-09-09T12:58:31;27.80;99.90
2465;DHT22;1244;54.326;10.074;2022-09-09T13:00:59;27.30;99.90
2465;DHT22;1244;54.326;10.074;2022-09-09T13:03:25;26.00;99.90
2465;DHT22;1244;54.326;10.074;2022-09-09T13:05:52;24.70;99.90
2465;DHT22;1244;54.326;10.074;2022-09-09T13:08:18;24.30;99.90
2465;DHT22;1244;54.326;10.074;2022-09-09T13:10:51;23.70;99.90
2465;DHT22;1244;54.326;10.074;2022-09-09T13:13:22;23.10;99.90
2465;DHT22;1244;54.326;10.074;2022-09-09T13:15:51;22.60;99.90
2465;DHT22;1244;54.326;10.074;2022-09-09T13:18:21;22.70;99.90
2465;DHT22;1244;54.326;10.074;2022-09-09T13:20:48;24.30;99.90
2465;DHT22;1244;54.326;10.074;2022-09-09T13:23:15;26.00;99.90
2465;DHT22;1244;54.326;10.074;2022-09-09T13:25:56;27.20;99.90
2465;DHT22;1244;54.326;10.074;2022-09-09T13:28:28;28.00;99.90
2465;DHT22;1244;54.326;10.074;2022-09-09T13:31:19;28.70;99.90
2465;DHT22;1244;54.326;10.074;2022-09-09T13:33:45;28.50;99.90
2465;DHT22;1244;54.326;10.074;2022-09-09T13:36:12;29.20;99.90
2465;DHT22;1244;54.326;10.074;2022-09-09T13:39:00;29.50;99.90
2465;DHT22;1244;54.326;10.074;2022-09-09T13:41:35;28.90;99.90
2465;DHT22;1244;54.326;10.074;2022-09-09T13:44:04;29.10;99.90
2465;DHT22;1244;54.326;10.074;2022-09-09T13:46:36;28.80;99.90
2465;DHT22;1244;54.326;10.074;2022-09-09T13:51:45;27.10;99.90
2465;DHT22;1244;54.326;10.074;2022-09-09T13:54:13;28.30;99.90
2465;DHT22;1244;54.326;10.074;2022-09-09T13:56:40;28.10;99.90
2465;DHT22;1244;54.326;10.074;2022-09-09T13:59:11;29.10;99.90
2465;DHT22;1244;54.326;10.074;2022-09-09T14:01:36;28.50;99.90
2465;DHT22;1244;54.326;10.074;2022-09-09T14:04:03;28.90;99.90
2465;DHT22;1244;54.326;10.074;2022-09-09T14:06:29;29.60;99.90
2465;DHT22;1244;54.326;10.074;2022-09-09T14:08:55;29.80;99.90
2465;DHT22;1244;54.326;10.074;2022-09-09T14:11:20;30.00;99.90
2465;DHT22;1244;54.326;10.074;2022-09-09T14:13:47;29.30;99.90
2465;DHT22;1244;54.326;10.074;2022-09-09T14:16:15;30.00;99.90
2465;DHT22;1244;54.326;10.074;2022-09-09T14:18:41;30.40;99.90
2465;DHT22;1244;54.326;10.074;2022-09-09T14:21:07;29.40;99.90
2465;DHT22;1244;54.326;10.074;2022-09-09T14:23:34;29.50;99.90
2465;DHT22;1244;54.326;10.074;2022-09-09T14:25:59;30.30;99.90
2465;DHT22;1244;54.326;10.074;2022-09-09T14:28:25;30.60;99.90
2465;DHT22;1244;54.326;10.074;2022-09-09T14:30:50;28.90;99.90
2465;DHT22;1244;54.326;10.074;2022-09-09T14:33:16;26.70;99.90
2465;DHT22;1244;54.326;10.074;2022-09-09T14:35:42;26.80;99.90
2465;DHT22;1244;54.326;10.074;2022-09-09T14:38:08;27.70;99.90
2465;DHT22;1244;54.326;10.074;2022-09-09T14:40:35;27.30;99.90
2465;DHT22;1244;54.326;10.074;2022-09-09T14:43:02;25.60;99.90
2465;DHT22;1244;54.326;10.074;2022-09-09T14:45:27;24.30;99.90
2465;DHT22;1244;54.326;10.074;2022-09-09T14:47:53;23.90;99.90
2465;DHT22;1244;54.326;10.074;2022-09-09T14:50:20;23.30;99.90
2465;DHT22;1244;54.326;10.074;2022-09-09T14:52:46;23.20;99.90
2465;DHT22;1244;54.326;10.074;2022-09-09T14:55:12;22.80;99.90
2465;DHT22;1244;54.326;10.074;2022-09-09T14:57:38;22.50;99.90
2465;DHT22;1244;54.326;10.074;2022-09-09T15:00:05;22.30;99.90
2465;DHT22;1244;54.326;10.074;2022-09-09T15:02:34;21.80;99.90
2465;DHT22;1244;54.326;10.074;2022-09-09T15:05:00;21.50;99.90
2465;DHT22;1244;54.326;10.074;2022-09-09T15:07:27;21.10;99.90
2465;DHT22;1244;54.326;10.074;2022-09-09T15:09:54;20.90;99.90
2465;DHT22;1244;54.326;10.074;2022-09-09T15:12:19;20.60;99.90
2465;DHT22;1244;54.326;10.074;2022-09-09T15:14:46;20.20;99.90
2465;DHT22;1244;54.326;10.074;2022-09-09T15:17:12;20.10;99.90
2465;DHT22;1244;54.326;10.074;2022-09-09T15:19:38;20.00;99.90
2465;DHT22;1244;54.326;10.074;2022-09-09T15:22:04;19.80;99.90
2465;DHT22;1244;54.326;10.074;2022-09-09T15:24:33;19.40;99.90
2465;DHT22;1244;54.326;10.074;2022-09-09T15:26:59;18.80;99.90
2465;DHT22;1244;54.326;10.074;2022-09-09T15:29:25;18.10;99.90
2465;DHT22;1244;54.326;10.074;2022-09-09T15:31:51;17.70;99.90
2465;DHT22;1244;54.326;10.074;2022-09-09T15:34:18;15.70;99.90
2465;DHT22;1244;54.326;10.074;2022-09-09T15:36:44;14.00;99.90
2465;DHT22;1244;54.326;10.074;2022-09-09T15:39:13;13.50;99.90
2465;DHT22;1244;54.326;10.074;2022-09-09T15:41:41;14.00;99.90
2465;DHT22;1244;54.326;10.074;2022-09-09T15:44:08;14.50;99.90
2465;DHT22;1244;54.326;10.074;2022-09-09T15:46:57;15.00;99.90
2465;DHT22;1244;54.326;10.074;2022-09-09T15:49:24;15.30;99.90
2465;DHT22;1244;54.326;10.074;2022-09-09T15:51:56;15.10;99.90
2465;DHT22;1244;54.326;10.074;2022-09-09T15:54:24;15.70;99.90
2465;DHT22;1244;54.326;10.074;2022-09-09T15:56:56;15.50;99.90
2465;DHT22;1244;54.326;10.074;2022-09-09T15:59:22;15.50;99.90
2465;DHT22;1244;54.326;10.074;2022-09-09T16:01:48;15.30;99.90
2465;DHT22;1244;54.326;10.074;2022-09-09T16:04:17;15.40;99.90
2465;DHT22;1244;54.326;10.074;2022-09-09T16:06:49;15.50;99.90
2465;DHT22;1244;54.326;10.074;2022-09-09T16:09:15;15.80;99.90
2465;DHT22;1244;54.326;10.074;2022-09-09T16:11:41;15.90;99.90
2465;DHT22;1244;54.326;10.074;2022-09-09T16:14:06;15.80;99.90
2465;DHT22;1244;54.326;10.074;2022-09-09T16:16:32;15.80;99.90
2465;DHT22;1244;54.326;10.074;2022-09-09T16:19:00;15.90;99.90
2465;DHT22;1244;54.326;10.074;2022-09-09T16:21:29;15.90;99.90
2465;DHT22;1244;54.326;10.074;2022-09-09T16:23:57;15.90;99.90
2465;DHT22;1244;54.326;10.074;2022-09-09T16:26:24;15.60;99.90
2465;DHT22;1244;54.326;10.074;2022-09-09T16:28:50;15.70;99.90
2465;DHT22;1244;54.326;10.074;2022-09-09T16:31:21;15.60;99.90
2465;DHT22;1244;54.326;10.074;2022-09-09T16:33:47;15.70;99.90
2465;DHT22;1244;54.326;10.074;2022-09-09T16:36:18;15.70;99.90
2465;DHT22;1244;54.326;10.074;2022-09-09T16:38:44;15.90;99.90
2465;DHT22;1244;54.326;10.074;2022-09-09T16:41:11;15.90;99.90
2465;DHT22;1244;54.326;10.074;2022-09-09T16:43:38;15.90;99.90
2465;DHT22;1244;54.326;10.074;2022-09-09T16:46:15;15.80;99.90
2465;DHT22;1244;54.326;10.074;2022-09-09T16:48:43;15.80;99.90
2465;DHT22;1244;54.326;10.074;2022-09-09T16:51:16;15.70;99.90
2465;DHT22;1244;54.326;10.074;2022-09-09T16:53:42;15.40;99.90
2465;DHT22;1244;54.326;10.074;2022-09-09T16:56:13;15.50;99.90
2465;DHT22;1244;54.326;10.074;2022-09-09T16:58:39;15.30;99.90
2465;DHT22;1244;54.326;10.074;2022-09-09T17:01:06;15.40;99.90
2465;DHT22;1244;54.326;10.074;2022-09-09T17:03:32;15.40;99.90
2465;DHT22;1244;54.326;10.074;2022-09-09T17:05:58;15.40;99.90
2465;DHT22;1244;54.326;10.074;2022-09-09T17:08:28;15.30;99.90
2465;DHT22;1244;54.326;10.074;2022-09-09T17:10:54;15.20;99.90
2465;DHT22;1244;54.326;10.074;2022-09-09T17:13:20;15.20;99.90
2465;DHT22;1244;54.326;10.074;2022-09-09T17:15:45;15.30;99.90
2465;DHT22;1244;54.326;10.074;2022-09-09T17:18:12;15.20;99.90
2465;DHT22;1244;54.326;10.074;2022-09-09T17:20:39;15.40;99.90
2465;DHT22;1244;54.326;10.074;2022-09-09T17:23:06;15.40;99.90
2465;DHT22;1244;54.326;10.074;2022-09-09T17:25:32;15.30;99.90
2465;DHT22;1244;54.326;10.074;2022-09-09T17:27:59;15.30;99.90
2465;DHT22;1244;54.326;10.074;2022-09-09T17:30:25;15.30;99.90
2465;DHT22;1244;54.326;10.074;2022-09-09T17:32:50;15.30;99.90
2465;DHT22;1244;54.326;10.074;2022-09-09T17:35:16;15.30;99.90
2465;DHT22;1244;54.326;10.074;2022-09-09T17:37:42;15.30;99.90
2465;DHT22;1244;54.326;10.074;2022-09-09T17:40:07;15.30;99.90
2465;DHT22;1244;54.326;10.074;2022-09-09T17:42:34;15.10;99.90